createdAt,value
2023-04-09T00:02:11.259Z,83.43
2023-04-09T00:09:46.514Z,83.46
2023-04-09T00:14:51.025Z,84.10
2023-04-09T00:17:17.858Z,84.53
2023-04-09T00:19:44.504Z,85.00
2023-04-09T00:22:11.292Z,84.68
2023-04-09T00:24:37.942Z,84.98
2023-04-09T00:27:04.807Z,85.15
2023-04-09T00:29:31.646Z,84.94
2023-04-09T00:37:06.897Z,85.16
2023-04-09T00:39:33.596Z,85.32
2023-04-09T00:42:03.120Z,85.69
2023-04-09T00:44:29.984Z,86.82
2023-04-09T00:49:36.291Z,86.01
2023-04-09T00:54:34.979Z,87.86
2023-04-09T00:57:01.972Z,86.83
2023-04-09T00:59:29.012Z,86.53
2023-04-09T01:07:18.921Z,86.23
2023-04-09T01:10:01.599Z,85.77
2023-04-09T01:12:54.807Z,86.07
2023-04-09T01:21:01.220Z,86.07
2023-04-09T01:29:50.145Z,89.26
2023-04-09T01:32:19.327Z,88.69
2023-04-09T01:34:48.156Z,88.50
2023-04-09T01:37:16.517Z,88.69
2023-04-09T01:39:43.588Z,88.54
2023-04-09T01:44:47.060Z,89.96
2023-04-09T01:47:14.213Z,89.81
2023-04-09T01:52:13.638Z,90.08
2023-04-09T01:57:11.842Z,89.92
2023-04-09T01:59:38.522Z,89.04
2023-04-09T02:04:49.511Z,87.47
2023-04-09T02:13:06.159Z,89.01
2023-04-09T02:15:36.821Z,88.86
2023-04-09T02:18:03.629Z,89.29
2023-04-09T02:23:02.164Z,89.40
2023-04-09T02:25:28.916Z,88.20
2023-04-09T02:30:26.845Z,88.03
2023-04-09T02:32:53.684Z,88.48
2023-04-09T02:35:20.329Z,89.06
2023-04-09T02:37:46.985Z,88.95
2023-04-09T02:40:13.749Z,88.93
2023-04-09T02:45:19.075Z,89.34
2023-04-09T02:47:45.830Z,89.74
2023-04-09T02:50:12.496Z,89.14
2023-04-09T02:52:39.115Z,89.45
2023-04-09T02:55:06.492Z,89.06
2023-04-09T02:57:33.803Z,89.76
2023-04-09T03:02:38.261Z,89.94
2023-04-09T03:05:05.729Z,89.38
2023-04-09T03:07:32.353Z,90.13
2023-04-09T03:12:31.286Z,91.27
2023-04-09T03:14:57.910Z,91.36
2023-04-09T03:17:27.676Z,90.76
2023-04-09T03:19:54.386Z,91.00
2023-04-09T03:22:21.046Z,91.10
2023-04-09T03:24:47.707Z,90.95
2023-04-09T03:27:14.619Z,91.23
2023-04-09T03:29:41.279Z,90.91
2023-04-09T03:34:39.180Z,91.15
2023-04-09T03:39:43.665Z,90.86
2023-04-09T03:42:10.273Z,90.59
2023-04-09T03:49:45.088Z,89.44
2023-04-09T03:52:11.741Z,89.50
2023-04-09T03:54:38.399Z,88.74
2023-04-09T03:57:05.032Z,88.83
2023-04-09T03:59:31.641Z,88.34
2023-04-09T04:04:30.780Z,89.31
2023-04-09T04:06:57.581Z,90.71
2023-04-09T04:09:24.227Z,89.65
2023-04-09T04:11:51.104Z,89.46
2023-04-09T04:14:17.799Z,89.64
2023-04-09T04:16:44.474Z,89.31
2023-04-09T04:19:11.288Z,90.28
2023-04-09T04:24:09.649Z,90.20
2023-04-09T04:26:36.308Z,90.73
2023-04-09T04:29:03.023Z,90.17
2023-04-09T04:31:29.746Z,90.93
2023-04-09T04:33:56.417Z,90.11
2023-04-09T04:36:23.069Z,91.55
2023-04-09T04:38:49.741Z,92.05
2023-04-09T04:43:48.091Z,92.17
2023-04-09T04:46:15.165Z,91.51
2023-04-09T04:48:41.846Z,91.57
2023-04-09T04:51:08.590Z,91.84
2023-04-09T04:53:35.287Z,91.16
2023-04-09T04:56:01.984Z,91.25
2023-04-09T04:58:29.604Z,91.19
2023-04-09T05:00:56.421Z,91.70
2023-04-09T05:03:24.726Z,92.55
2023-04-09T05:05:53.591Z,91.49
2023-04-09T05:08:20.252Z,92.55
2023-04-09T05:10:47.112Z,91.75
2023-04-09T05:18:16.565Z,92.29
2023-04-09T05:20:43.204Z,92.41
2023-04-09T05:25:44.599Z,91.94
2023-04-09T05:28:14.270Z,91.58
2023-04-09T05:30:41.186Z,89.94
2023-04-09T05:33:07.893Z,89.12
2023-04-09T05:35:39.003Z,87.92
2023-04-09T05:38:05.902Z,87.68
2023-04-09T05:40:32.667Z,87.61
2023-04-09T05:45:36.748Z,88.48
2023-04-09T05:48:03.710Z,88.51
2023-04-09T05:50:31.827Z,88.06
2023-04-09T05:55:33.957Z,86.91
2023-04-09T05:58:00.829Z,87.84
2023-04-09T06:00:27.500Z,87.83
2023-04-09T06:02:54.197Z,86.01
2023-04-09T06:05:20.992Z,85.52
2023-04-09T06:07:47.782Z,86.03
2023-04-09T06:10:14.567Z,86.31
2023-04-09T06:12:41.220Z,87.00
2023-04-09T06:15:08.081Z,87.59
2023-04-09T06:17:34.958Z,87.60
2023-04-09T06:22:39.149Z,85.46
2023-04-09T06:27:37.523Z,85.01
2023-04-09T06:30:04.447Z,83.49
2023-04-09T06:32:33.617Z,82.24
2023-04-09T06:35:04.940Z,81.51
2023-04-09T06:37:31.619Z,81.21
2023-04-09T06:40:01.378Z,80.76
2023-04-09T06:42:28.523Z,80.03
2023-04-09T06:44:55.405Z,79.24
2023-04-09T06:50:00.472Z,77.53
2023-04-09T06:52:27.138Z,77.60
2023-04-09T06:54:53.877Z,75.73
2023-04-09T06:57:20.731Z,74.18
2023-04-09T07:02:18.905Z,73.08
2023-04-09T07:04:45.877Z,73.56
2023-04-09T07:07:12.913Z,73.65
2023-04-09T07:09:39.600Z,71.53
2023-04-09T07:12:06.330Z,71.08
2023-04-09T07:14:33.012Z,73.20
2023-04-09T07:16:59.755Z,72.78
2023-04-09T07:19:26.460Z,68.86
2023-04-09T07:21:53.107Z,67.80
2023-04-09T07:26:58.156Z,67.31
2023-04-09T07:29:24.862Z,66.79
2023-04-09T07:31:51.833Z,64.92
2023-04-09T07:41:54.887Z,62.53
2023-04-09T07:44:21.488Z,60.86
2023-04-09T07:46:48.179Z,59.61
2023-04-09T07:49:14.907Z,59.01
2023-04-09T07:51:41.785Z,59.53
2023-04-09T07:54:09.147Z,56.23
2023-04-09T07:56:35.877Z,57.10
2023-04-09T07:59:02.636Z,56.92
2023-04-09T08:01:29.316Z,57.65
2023-04-09T08:03:56.172Z,57.13
2023-04-09T08:08:54.486Z,56.24
2023-04-09T08:11:25.418Z,57.34
2023-04-09T08:13:56.146Z,55.68
2023-04-09T08:16:24.736Z,55.48
2023-04-09T08:18:51.778Z,55.45
2023-04-09T08:23:50.332Z,55.63
2023-04-09T08:26:16.996Z,55.61
2023-04-09T08:28:43.986Z,55.14
2023-04-09T08:31:10.693Z,53.44
2023-04-09T08:38:47.355Z,52.80
2023-04-09T08:41:21.718Z,52.20
2023-04-09T08:43:57.630Z,51.74
2023-04-09T08:46:26.723Z,51.82
2023-04-09T08:48:53.974Z,51.21
2023-04-09T08:51:23.348Z,50.16
2023-04-09T08:53:56.786Z,51.26
2023-04-09T08:56:24.251Z,50.14
2023-04-09T08:58:51.454Z,50.30
2023-04-09T09:01:30.154Z,50.67
2023-04-09T09:04:05.071Z,49.47
2023-04-09T09:06:37.392Z,47.62
2023-04-09T09:09:07.969Z,46.20
2023-04-09T09:11:40.756Z,47.06
2023-04-09T09:14:10.395Z,47.46
2023-04-09T09:19:26.299Z,46.45
2023-04-09T09:22:00.715Z,46.80
2023-04-09T09:24:27.903Z,46.93
2023-04-09T09:26:54.919Z,46.46
2023-04-09T09:29:22.020Z,47.52
2023-04-09T09:31:51.360Z,46.23
2023-04-09T09:34:19.773Z,45.94
2023-04-09T09:36:47.394Z,44.79
2023-04-09T09:39:17.504Z,45.89
2023-04-09T09:44:33.580Z,44.74
2023-04-09T09:52:25.091Z,43.12
2023-04-09T09:54:53.628Z,43.78
2023-04-09T09:57:22.498Z,43.25
2023-04-09T10:00:04.658Z,42.38
2023-04-09T10:02:40.810Z,43.26
2023-04-09T10:05:08.913Z,43.76
2023-04-09T10:07:37.601Z,42.46
2023-04-09T10:10:06.355Z,42.41
2023-04-09T10:12:34.125Z,43.20
2023-04-09T10:15:04.936Z,43.79
2023-04-09T10:20:19.954Z,44.55
2023-04-09T10:25:22.062Z,45.87
2023-04-09T10:30:34.904Z,42.57
2023-04-09T10:33:14.893Z,44.42
2023-04-09T10:35:42.565Z,44.72
2023-04-09T10:38:10.841Z,44.71
2023-04-09T10:40:42.380Z,44.59
2023-04-09T10:43:10.282Z,44.48
2023-04-09T10:45:41.927Z,43.87
2023-04-09T10:48:14.885Z,44.68
2023-04-09T10:53:24.230Z,44.43
2023-04-09T10:55:52.209Z,44.41
2023-04-09T11:00:51.725Z,42.56
2023-04-09T11:06:09.470Z,41.65
2023-04-09T11:08:38.335Z,41.06
2023-04-09T11:11:05.173Z,40.70
2023-04-09T11:16:07.315Z,39.55
2023-04-09T11:18:35.304Z,40.42
2023-04-09T11:21:04.375Z,41.89
2023-04-09T11:23:32.927Z,41.63
2023-04-09T11:25:59.751Z,42.19
2023-04-09T11:28:26.660Z,42.41
2023-04-09T11:30:53.728Z,41.45
2023-04-09T11:33:20.852Z,40.55
2023-04-09T11:35:48.639Z,40.34
2023-04-09T11:38:15.570Z,40.10
2023-04-09T11:43:26.201Z,39.99
2023-04-09T11:45:53.768Z,39.53
2023-04-09T11:48:23.542Z,40.06
2023-04-09T11:50:50.946Z,40.50
2023-04-09T11:53:19.262Z,41.69
2023-04-09T11:55:51.678Z,41.62
2023-04-09T11:58:18.738Z,41.11
2023-04-09T12:05:50.915Z,40.44
2023-04-09T12:11:15.095Z,39.42
2023-04-09T12:13:45.516Z,39.79
2023-04-09T12:18:55.969Z,41.05
2023-04-09T12:21:27.780Z,41.40
2023-04-09T12:23:54.407Z,40.66
2023-04-09T12:26:21.195Z,40.15
2023-04-09T12:28:47.938Z,40.19
2023-04-09T12:31:14.641Z,40.29
2023-04-09T12:33:41.357Z,40.26
2023-04-09T12:38:46.219Z,40.61
2023-04-09T12:41:13.573Z,40.24
2023-04-09T12:43:40.226Z,40.30
2023-04-09T12:46:07.074Z,40.48
2023-04-09T12:48:34.146Z,39.92
2023-04-09T12:51:01.904Z,40.05
2023-04-09T12:53:28.784Z,40.45
2023-04-09T12:55:55.420Z,40.24
2023-04-09T12:58:22.120Z,39.93
2023-04-09T13:00:48.789Z,40.40
2023-04-09T13:03:17.197Z,39.48
2023-04-09T13:05:44.053Z,40.02
2023-04-09T13:08:10.688Z,39.11
2023-04-09T13:10:37.324Z,39.80
2023-04-09T13:13:04.038Z,39.47
2023-04-09T13:15:30.660Z,39.58
2023-04-09T13:17:57.367Z,40.38
2023-04-09T13:20:24.092Z,41.04
2023-04-09T13:22:51.204Z,41.38
2023-04-09T13:25:18.216Z,40.64
2023-04-09T13:27:44.900Z,40.15
2023-04-09T13:30:11.791Z,40.19
2023-04-09T13:32:38.564Z,40.64
2023-04-09T13:35:06.789Z,39.86
2023-04-09T13:37:33.438Z,39.78
2023-04-09T13:40:00.063Z,39.99
2023-04-09T13:42:26.770Z,39.85
2023-04-09T13:44:53.958Z,39.53
2023-04-09T13:47:21.379Z,39.74
2023-04-09T13:49:48.094Z,39.22
2023-04-09T13:52:14.776Z,40.42
2023-04-09T13:54:41.426Z,40.02
2023-04-09T13:57:08.211Z,39.59
2023-04-09T13:59:34.924Z,40.20
2023-04-09T14:04:33.012Z,39.80
2023-04-09T14:06:59.678Z,40.58
2023-04-09T14:09:26.405Z,40.44
2023-04-09T14:11:55.078Z,40.38
2023-04-09T14:14:21.813Z,40.47
2023-04-09T14:19:26.376Z,41.11
2023-04-09T14:24:25.910Z,40.20
2023-04-09T14:26:53.739Z,40.01
2023-04-09T14:31:58.688Z,39.05
2023-04-09T14:37:04.164Z,39.18
2023-04-09T14:39:31.006Z,39.70
2023-04-09T14:41:57.983Z,39.74
2023-04-09T14:44:27.558Z,39.14
2023-04-09T14:46:58.044Z,39.07
2023-04-09T14:49:24.961Z,38.32
2023-04-09T14:51:51.623Z,39.28
2023-04-09T14:54:18.291Z,38.94
2023-04-09T14:56:44.963Z,38.63
2023-04-09T14:59:11.659Z,38.42
2023-04-09T15:01:38.409Z,38.18
2023-04-09T15:04:05.207Z,37.59
2023-04-09T15:06:32.515Z,37.62
2023-04-09T15:08:59.200Z,38.20
2023-04-09T15:11:25.923Z,38.23
2023-04-09T15:13:52.653Z,38.47
2023-04-09T15:16:24.423Z,38.47
2023-04-09T15:18:52.675Z,38.37
2023-04-09T15:21:19.625Z,37.68
2023-04-09T15:26:21.078Z,37.88
2023-04-09T15:28:48.393Z,38.92
2023-04-09T15:31:15.136Z,38.64
2023-04-09T15:33:45.759Z,39.27
2023-04-09T15:36:12.476Z,39.55
2023-04-09T15:38:39.197Z,39.44
2023-04-09T15:41:05.905Z,39.17
2023-04-09T15:43:32.526Z,39.06
2023-04-09T15:45:59.261Z,39.23
2023-04-09T15:48:26.038Z,39.41
2023-04-09T15:50:52.672Z,38.74
2023-04-09T15:53:23.920Z,38.68
2023-04-09T15:55:50.615Z,38.62
2023-04-09T15:58:17.744Z,39.27
2023-04-09T16:00:44.513Z,38.69
2023-04-09T16:03:11.295Z,38.99
2023-04-09T16:05:38.097Z,38.81
2023-04-09T16:08:04.769Z,39.00
2023-04-09T16:10:31.571Z,38.96
2023-04-09T16:12:58.268Z,39.06
2023-04-09T16:15:25.029Z,39.24
2023-04-09T16:17:51.694Z,39.41
2023-04-09T16:20:18.398Z,39.10
2023-04-09T16:25:18.939Z,39.43
2023-04-09T16:27:45.735Z,39.82
2023-04-09T16:30:12.736Z,39.73
2023-04-09T16:32:39.548Z,39.64
2023-04-09T16:35:06.651Z,39.76
2023-04-09T16:37:35.265Z,39.21
2023-04-09T16:40:02.259Z,39.65
2023-04-09T16:42:30.571Z,39.54
2023-04-09T16:44:57.330Z,39.78
2023-04-09T16:47:24.008Z,39.87
2023-04-09T16:49:50.752Z,39.73
2023-04-09T16:52:17.393Z,39.49
2023-04-09T16:54:43.999Z,39.70
2023-04-09T16:57:10.628Z,39.69
2023-04-09T16:59:37.837Z,40.43
2023-04-09T17:02:04.650Z,40.43
2023-04-09T17:04:31.860Z,40.23
2023-04-09T17:06:59.015Z,40.41
2023-04-09T17:09:25.948Z,40.23
2023-04-09T17:11:53.501Z,40.31
2023-04-09T17:14:20.142Z,40.47
2023-04-09T17:16:47.117Z,40.39
2023-04-09T17:19:14.078Z,40.36
2023-04-09T17:21:41.107Z,40.91
2023-04-09T17:24:07.823Z,41.23
2023-04-09T17:26:34.881Z,41.19
2023-04-09T17:29:02.103Z,41.97
2023-04-09T17:31:29.215Z,41.04
2023-04-09T17:33:56.239Z,40.54
2023-04-09T17:36:23.155Z,40.87
2023-04-09T17:38:53.059Z,41.04
2023-04-09T17:41:19.937Z,40.89
2023-04-09T17:43:46.686Z,41.04
2023-04-09T17:46:13.391Z,41.11
2023-04-09T17:48:40.743Z,41.59
2023-04-09T17:51:07.593Z,41.76
2023-04-09T17:53:34.316Z,41.75
2023-04-09T17:56:03.310Z,42.12
2023-04-09T17:58:30.294Z,42.32
2023-04-09T18:00:56.934Z,42.49
2023-04-09T18:03:23.803Z,42.78
2023-04-09T18:05:51.039Z,50.92
2023-04-09T18:08:17.811Z,45.97
2023-04-09T18:10:44.455Z,43.20
2023-04-09T18:13:11.138Z,42.98
2023-04-09T18:15:37.820Z,42.75
2023-04-09T18:18:04.491Z,43.57
2023-04-09T18:20:31.195Z,43.52
2023-04-09T18:22:57.901Z,44.38
2023-04-09T18:25:24.697Z,44.47
2023-04-09T18:27:51.415Z,43.98
2023-04-09T18:30:18.209Z,44.33
2023-04-09T18:32:44.931Z,44.14
2023-04-09T18:35:11.717Z,43.75
2023-04-09T18:37:38.449Z,44.66
2023-04-09T18:40:12.524Z,44.32
2023-04-09T18:42:39.198Z,44.41
2023-04-09T18:45:06.129Z,44.62
2023-04-09T18:47:32.973Z,46.79
2023-04-09T18:49:59.597Z,46.09
2023-04-09T18:52:26.432Z,48.15
2023-04-09T18:54:53.148Z,48.65
2023-04-09T18:57:19.788Z,49.07
2023-04-09T18:59:46.786Z,49.27
2023-04-09T19:04:50.902Z,49.67
2023-04-09T19:07:19.696Z,50.52
2023-04-09T19:09:46.879Z,51.03
2023-04-09T19:12:13.593Z,51.09
2023-04-09T19:14:42.847Z,51.22
2023-04-09T19:17:09.604Z,49.79
2023-04-09T19:22:07.496Z,51.00
2023-04-09T19:24:34.162Z,51.21
2023-04-09T19:27:04.860Z,51.17
2023-04-09T19:29:31.608Z,49.60
2023-04-09T19:31:58.385Z,49.87
2023-04-09T19:34:25.176Z,49.70
2023-04-09T19:36:51.850Z,49.28
2023-04-09T19:39:19.095Z,48.76
2023-04-09T19:41:45.931Z,49.29
2023-04-09T19:49:22.334Z,51.85
2023-04-09T19:54:22.348Z,52.53
2023-04-09T19:56:48.997Z,52.34
2023-04-09T19:59:15.851Z,52.53
2023-04-09T20:01:43.574Z,52.98
2023-04-09T20:04:10.456Z,52.63
2023-04-09T20:06:37.326Z,52.63
2023-04-09T20:09:04.028Z,52.75
2023-04-09T20:11:30.727Z,51.42
2023-04-09T20:13:57.574Z,51.99
2023-04-09T20:16:24.274Z,52.08
2023-04-09T20:21:23.837Z,53.48
2023-04-09T20:23:50.577Z,55.15
2023-04-09T20:26:17.307Z,52.95
2023-04-09T20:28:43.975Z,53.89
2023-04-09T20:31:10.660Z,52.93
2023-04-09T20:33:37.316Z,53.20
2023-04-09T20:36:04.167Z,53.75
2023-04-09T20:38:30.864Z,53.45
2023-04-09T20:43:30.939Z,54.21
2023-04-09T20:45:57.665Z,54.38
2023-04-09T20:48:24.365Z,54.86
2023-04-09T20:50:51.272Z,55.06
2023-04-09T20:53:18.176Z,55.57
2023-04-09T20:55:46.117Z,55.43
2023-04-09T20:58:12.828Z,54.73
2023-04-09T21:00:39.501Z,57.46
2023-04-09T21:03:06.245Z,55.91
2023-04-09T21:05:33.135Z,56.42
2023-04-09T21:07:59.802Z,57.37
2023-04-09T21:10:26.454Z,59.13
2023-04-09T21:12:53.234Z,59.17
2023-04-09T21:15:19.916Z,60.18
2023-04-09T21:20:18.409Z,59.79
2023-04-09T21:22:45.103Z,58.77
2023-04-09T21:25:13.356Z,59.24
2023-04-09T21:27:41.851Z,58.60
2023-04-09T21:30:08.891Z,58.59
2023-04-09T21:32:35.617Z,58.44
2023-04-09T21:35:02.276Z,58.40
2023-04-09T21:37:29.561Z,58.13
2023-04-09T21:39:56.291Z,58.31
2023-04-09T21:42:23.253Z,58.98
2023-04-09T21:44:49.867Z,59.04
2023-04-09T21:47:16.596Z,59.54
2023-04-09T21:49:43.230Z,59.61
2023-04-09T21:52:15.031Z,60.89
2023-04-09T21:54:42.476Z,60.54
2023-04-09T21:57:09.610Z,61.52
2023-04-09T21:59:36.754Z,61.80
2023-04-09T22:02:04.863Z,62.53
2023-04-09T22:04:31.757Z,62.69
2023-04-09T22:06:58.485Z,62.41
2023-04-09T22:09:25.616Z,62.74
2023-04-09T22:11:53.183Z,63.13
2023-04-09T22:19:43.834Z,63.28
2023-04-09T22:22:12.421Z,63.90
2023-04-09T22:24:39.556Z,63.84
2023-04-09T22:27:06.230Z,63.61
2023-04-09T22:29:33.017Z,63.57
2023-04-09T22:31:59.773Z,64.02
2023-04-09T22:34:26.512Z,63.67
2023-04-09T22:36:53.266Z,64.46
2023-04-09T22:39:19.947Z,64.94
2023-04-09T22:41:46.597Z,66.32
2023-04-09T22:44:13.337Z,66.05
2023-04-09T22:46:39.992Z,66.81
2023-04-09T22:49:06.919Z,65.86
2023-04-09T22:51:36.893Z,65.55
2023-04-09T22:54:03.925Z,65.30
2023-04-09T22:56:33.686Z,66.41
2023-04-09T22:59:00.777Z,66.51
2023-04-09T23:01:28.105Z,67.14
2023-04-09T23:03:55.265Z,66.43
2023-04-09T23:06:22.906Z,65.74
2023-04-09T23:08:49.798Z,65.54
2023-04-09T23:11:16.608Z,66.03
2023-04-09T23:13:43.325Z,66.31
2023-04-09T23:16:10.899Z,66.89
2023-04-09T23:18:37.911Z,67.34
2023-04-09T23:21:11.165Z,66.84
2023-04-09T23:23:39.135Z,67.15
2023-04-09T23:26:06.310Z,67.64
2023-04-09T23:28:33.341Z,67.62
2023-04-09T23:31:00.262Z,68.45
2023-04-09T23:33:26.990Z,68.40
2023-04-09T23:35:53.686Z,68.70
2023-04-09T23:38:20.425Z,69.15
2023-04-09T23:43:19.977Z,69.07
2023-04-09T23:48:24.480Z,70.03
2023-04-09T23:53:25.548Z,69.80
2023-04-09T23:55:52.888Z,69.62
2023-04-09T23:58:21.451Z,69.68
